Time;durP1;ratioP1;P1;durP2;ratioP2;P2;SDS_P1;SDS_P2;PMS_P1;PMS_P2;Temp;Humidity;BMP_temperature;BMP_pressure;BME280_temperature;BME280_humidity;BME280_pressure;Samples;Min_cycle;Max_cycle;Signal;HPM_P1;HPM_P2
2023/06/04 00:02:18;;;;;;;6.03;2.85;;;;;;;;;;5020037;28;20037;-76
2023/06/04 00:04:44;;;;;;;5.53;2.95;;;;;;;;;;4998269;28;20064;-76
2023/06/04 00:07:10;;;;;;;6.55;3.30;;;;;;;;;;5009411;28;20038;-76
2023/06/04 00:09:36;;;;;;;5.97;3.58;;;;;;;;;;5009586;28;20485;-76
2023/06/04 00:12:03;;;;;;;7.85;3.10;;;;;;;;;;5005785;28;20046;-77
2023/06/04 00:14:29;;;;;;;6.93;3.55;;;;;;;;;;5001440;28;20041;-76
2023/06/04 00:16:55;;;;;;;5.75;3.40;;;;;;;;;;5002525;28;20041;-76
2023/06/04 00:19:21;;;;;;;6.80;3.30;;;;;;;;;;5009591;28;20125;-76
2023/06/04 00:21:47;;;;;;;5.00;3.00;;;;;;;;;;5005928;28;20137;-77
2023/06/04 00:24:13;;;;;;;5.70;3.30;;;;;;;;;;5005212;28;20042;-76
2023/06/04 00:26:39;;;;;;;6.10;3.08;;;;;;;;;;4995402;28;20082;-75
2023/06/04 00:29:05;;;;;;;4.82;3.20;;;;;;;;;;5002063;28;20054;-77
2023/06/04 00:31:31;;;;;;;5.82;3.38;;;;;;;;;;5003180;28;20085;-77
2023/06/04 00:33:57;;;;;;;8.07;3.38;;;;;;;;;;4992035;28;20451;-77
2023/06/04 00:36:23;;;;;;;8.25;3.35;;;;;;;;;;4993317;28;20130;-76
2023/06/04 00:38:49;;;;;;;4.93;3.10;;;;;;;;;;5009000;28;20062;-76
2023/06/04 00:41:15;;;;;;;7.07;3.30;;;;;;;;;;5003050;28;20148;-77
2023/06/04 00:43:45;;;;;;;6.40;3.35;;;;;;;;;;5001158;28;20481;-77
2023/06/04 00:46:17;;;;;;;8.10;3.60;;;;;;;;;;5000458;28;20145;-77
2023/06/04 00:48:44;;;;;;;7.90;2.97;;;;;;;;;;5004353;28;20511;-75
2023/06/04 00:51:11;;;;;;;6.60;3.10;;;;;;;;;;5009332;28;20041;-76
2023/06/04 00:53:37;;;;;;;5.50;3.17;;;;;;;;;;5001278;28;20194;-76
2023/06/04 00:56:05;;;;;;;6.80;3.00;;;;;;;;;;5002976;28;20041;-76
2023/06/04 00:58:31;;;;;;;5.43;3.50;;;;;;;;;;5000118;28;20053;-76
2023/06/04 01:00:59;;;;;;;6.00;3.33;;;;;;;;;;5006029;28;20046;-76
2023/06/04 01:03:29;;;;;;;6.85;3.42;;;;;;;;;;5000330;28;20061;-75
2023/06/04 01:06:01;;;;;;;6.47;3.50;;;;;;;;;;4999696;28;20421;-75
2023/06/04 01:08:28;;;;;;;5.57;2.97;;;;;;;;;;5000544;28;20050;-76
2023/06/04 01:10:55;;;;;;;6.75;3.45;;;;;;;;;;5008540;28;20045;-76
2023/06/04 01:13:21;;;;;;;6.50;4.07;;;;;;;;;;5008068;28;20042;-76
2023/06/04 01:15:47;;;;;;;5.78;3.45;;;;;;;;;;5005192;28;20485;-75
2023/06/04 01:18:27;;;;;;;5.60;3.17;;;;;;;;;;5003460;28;20042;-75
2023/06/04 01:20:54;;;;;;;4.82;3.00;;;;;;;;;;5005789;28;20124;-76
2023/06/04 01:23:33;;;;;;;8.43;3.03;;;;;;;;;;4999173;28;20426;-75
2023/06/04 01:26:04;;;;;;;6.80;3.25;;;;;;;;;;4994571;28;20111;-75
2023/06/04 01:28:34;;;;;;;6.18;3.30;;;;;;;;;;5007517;28;20049;-76
2023/06/04 01:31:01;;;;;;;5.28;3.22;;;;;;;;;;5005867;28;20050;-75
2023/06/04 01:33:27;;;;;;;5.38;3.35;;;;;;;;;;4999579;28;20470;-76
2023/06/04 01:35:53;;;;;;;6.18;3.20;;;;;;;;;;5009775;28;20042;-75
2023/06/04 01:38:20;;;;;;;6.90;3.47;;;;;;;;;;5000028;28;20398;-75
2023/06/04 01:40:46;;;;;;;7.93;3.45;;;;;;;;;;5016685;28;20137;-75
2023/06/04 01:43:12;;;;;;;6.47;3.50;;;;;;;;;;4993469;28;20050;-76
2023/06/04 01:45:38;;;;;;;5.60;3.00;;;;;;;;;;5011237;28;20137;-76
2023/06/04 01:48:05;;;;;;;6.00;3.03;;;;;;;;;;5004863;28;20080;-76
2023/06/04 01:50:32;;;;;;;5.88;3.25;;;;;;;;;;5021367;28;20078;-75
2023/06/04 01:52:58;;;;;;;6.05;3.38;;;;;;;;;;5011660;28;20042;-76
2023/06/04 01:55:25;;;;;;;6.88;3.22;;;;;;;;;;5009505;28;20494;-76
2023/06/04 01:57:51;;;;;;;7.47;3.30;;;;;;;;;;5008497;28;20517;-76
2023/06/04 02:00:18;;;;;;;6.93;3.38;;;;;;;;;;5001530;28;20101;-76
2023/06/04 02:02:45;;;;;;;8.20;3.63;;;;;;;;;;5008765;28;20618;-75
2023/06/04 02:05:11;;;;;;;5.70;3.67;;;;;;;;;;5000485;28;20397;-76
2023/06/04 02:07:41;;;;;;;6.30;3.20;;;;;;;;;;5008999;28;20042;-76
2023/06/04 02:10:11;;;;;;;10.30;3.90;;;;;;;;;;4999581;28;20057;-76
2023/06/04 02:12:39;;;;;;;7.60;3.30;;;;;;;;;;5005618;28;20057;-76
2023/06/04 02:15:06;;;;;;;6.85;3.55;;;;;;;;;;5010559;28;20065;-76
2023/06/04 02:17:32;;;;;;;5.55;3.17;;;;;;;;;;5007766;28;20046;-76
2023/06/04 02:19:58;;;;;;;7.80;3.60;;;;;;;;;;5003847;28;20038;-76
2023/06/04 02:22:25;;;;;;;5.90;3.55;;;;;;;;;;5005369;28;20057;-76
2023/06/04 02:24:51;;;;;;;5.78;3.40;;;;;;;;;;5010165;28;20041;-76
2023/06/04 02:27:17;;;;;;;6.53;3.08;;;;;;;;;;5006052;28;20489;-76
2023/06/04 02:29:43;;;;;;;6.57;3.38;;;;;;;;;;5024935;28;20084;-76
2023/06/04 02:32:10;;;;;;;6.10;3.75;;;;;;;;;;5007947;28;20141;-76
2023/06/04 02:34:36;;;;;;;6.05;3.67;;;;;;;;;;5008692;28;20053;-76
2023/06/04 02:37:03;;;;;;;6.88;3.33;;;;;;;;;;5014005;28;20528;-76
2023/06/04 02:39:29;;;;;;;9.05;3.47;;;;;;;;;;5009313;28;20072;-76
2023/06/04 02:41:55;;;;;;;6.57;3.55;;;;;;;;;;5003881;28;20489;-76
2023/06/04 02:44:21;;;;;;;6.22;3.08;;;;;;;;;;5004101;28;20053;-76
2023/06/04 02:46:47;;;;;;;10.98;3.13;;;;;;;;;;5004112;28;20037;-76
2023/06/04 02:49:13;;;;;;;6.07;3.33;;;;;;;;;;5006941;28;20169;-76
2023/06/04 02:51:42;;;;;;;6.85;3.47;;;;;;;;;;5010846;28;20054;-75
2023/06/04 02:54:08;;;;;;;8.07;3.67;;;;;;;;;;5004571;28;20046;-76
2023/06/04 02:56:35;;;;;;;5.50;3.40;;;;;;;;;;5004839;28;20057;-75
2023/06/04 02:59:01;;;;;;;6.20;3.75;;;;;;;;;;5012333;28;20571;-76
2023/06/04 03:01:27;;;;;;;5.47;3.40;;;;;;;;;;5006753;28;20187;-76
2023/06/04 03:03:54;;;;;;;9.27;3.58;;;;;;;;;;5010142;28;20140;-75
2023/06/04 03:06:21;;;;;;;5.22;3.55;;;;;;;;;;5012053;28;20509;-75
2023/06/04 03:08:48;;;;;;;9.70;3.83;;;;;;;;;;5003237;28;20506;-75
2023/06/04 03:11:14;;;;;;;6.82;3.30;;;;;;;;;;5005368;28;20080;-75
2023/06/04 03:13:40;;;;;;;7.20;3.42;;;;;;;;;;5011425;28;20202;-76
2023/06/04 03:16:10;;;;;;;4.88;3.22;;;;;;;;;;5008671;28;20081;-76
2023/06/04 03:18:40;;;;;;;11.95;3.67;;;;;;;;;;5008677;28;20057;-76
2023/06/04 03:21:06;;;;;;;5.55;3.50;;;;;;;;;;5001526;28;20056;-77
2023/06/04 03:23:33;;;;;;;8.85;4.07;;;;;;;;;;5004070;28;20057;-77
2023/06/04 03:25:59;;;;;;;9.00;4.35;;;;;;;;;;5011402;28;20068;-77
2023/06/04 03:28:25;;;;;;;7.13;3.85;;;;;;;;;;4998976;28;20162;-77
2023/06/04 03:30:51;;;;;;;9.48;4.47;;;;;;;;;;5007346;28;20042;-76
2023/06/04 03:33:17;;;;;;;9.82;4.80;;;;;;;;;;5005990;28;20034;-77
2023/06/04 03:35:43;;;;;;;8.75;4.57;;;;;;;;;;5009414;28;20045;-75
2023/06/04 03:38:09;;;;;;;8.27;4.35;;;;;;;;;;5010151;28;20095;-74
2023/06/04 03:40:35;;;;;;;8.45;4.20;;;;;;;;;;5001551;28;20061;-75
2023/06/04 03:43:03;;;;;;;7.53;4.57;;;;;;;;;;5003355;28;20112;-75
2023/06/04 03:45:29;;;;;;;8.25;4.78;;;;;;;;;;5006793;28;20045;-75
2023/06/04 03:47:55;;;;;;;5.60;4.22;;;;;;;;;;5003100;28;20053;-75
2023/06/04 03:50:22;;;;;;;8.82;4.68;;;;;;;;;;5001519;28;20049;-75
2023/06/04 03:52:51;;;;;;;9.80;4.82;;;;;;;;;;5009832;28;20046;-75
2023/06/04 03:55:17;;;;;;;7.85;4.45;;;;;;;;;;5005788;28;20129;-75
2023/06/04 03:57:43;;;;;;;12.27;5.07;;;;;;;;;;4998720;28;20097;-75
2023/06/04 04:00:12;;;;;;;7.82;4.75;;;;;;;;;;5004168;28;20093;-77
2023/06/04 04:02:38;;;;;;;9.60;4.63;;;;;;;;;;5005859;28;20466;-75
2023/06/04 04:05:04;;;;;;;10.27;5.00;;;;;;;;;;5007961;28;20042;-75
2023/06/04 04:07:30;;;;;;;11.70;5.00;;;;;;;;;;5006875;28;20096;-75
2023/06/04 04:09:56;;;;;;;8.95;5.03;;;;;;;;;;5006296;28;20079;-75
2023/06/04 04:12:22;;;;;;;10.18;4.93;;;;;;;;;;5001235;28;20142;-75
2023/06/04 04:14:48;;;;;;;9.45;5.03;;;;;;;;;;5009225;28;20366;-75
2023/06/04 04:17:15;;;;;;;11.07;5.07;;;;;;;;;;5001266;28;20414;-75
2023/06/04 04:19:41;;;;;;;13.82;4.95;;;;;;;;;;5007961;28;20057;-75
2023/06/04 04:22:08;;;;;;;8.00;4.32;;;;;;;;;;5003020;28;20116;-75
2023/06/04 04:24:39;;;;;;;9.48;5.22;;;;;;;;;;4995068;28;20069;-74
2023/06/04 04:27:05;;;;;;;10.80;5.55;;;;;;;;;;5003942;28;20497;-74
2023/06/04 04:29:34;;;;;;;9.40;5.10;;;;;;;;;;5012056;28;20132;-74
2023/06/04 04:32:11;;;;;;;9.38;4.80;;;;;;;;;;5006246;28;20497;-75
2023/06/04 04:34:42;;;;;;;10.52;5.28;;;;;;;;;;5009299;28;20068;-75
2023/06/04 04:37:09;;;;;;;12.43;5.78;;;;;;;;;;5007704;28;20056;-75
2023/06/04 04:39:36;;;;;;;8.90;5.00;;;;;;;;;;5005574;28;20052;-75
2023/06/04 04:42:02;;;;;;;13.52;5.13;;;;;;;;;;4996227;28;20074;-75
2023/06/04 04:44:28;;;;;;;10.43;5.63;;;;;;;;;;5004609;28;20502;-74
2023/06/04 04:46:54;;;;;;;11.50;5.45;;;;;;;;;;5003303;28;20060;-76
2023/06/04 04:49:20;;;;;;;9.57;5.20;;;;;;;;;;5024144;28;20049;-75
2023/06/04 04:51:47;;;;;;;8.65;4.90;;;;;;;;;;5007628;28;20061;-74
2023/06/04 04:54:13;;;;;;;10.00;4.93;;;;;;;;;;4999301;28;20048;-75
2023/06/04 04:56:39;;;;;;;9.48;4.90;;;;;;;;;;4998138;28;20049;-75
2023/06/04 04:59:05;;;;;;;8.93;5.03;;;;;;;;;;4999361;28;20351;-76
2023/06/04 05:01:31;;;;;;;5.93;4.57;;;;;;;;;;5005581;28;20453;-75
2023/06/04 05:03:57;;;;;;;10.38;5.22;;;;;;;;;;5007265;28;20546;-75
2023/06/04 05:06:23;;;;;;;9.30;5.22;;;;;;;;;;5006452;28;20049;-75
2023/06/04 05:08:49;;;;;;;8.15;5.22;;;;;;;;;;4999611;28;20049;-75
2023/06/04 05:11:15;;;;;;;9.52;5.68;;;;;;;;;;5011504;28;20042;-75
2023/06/04 05:13:41;;;;;;;7.72;5.13;;;;;;;;;;5009646;28;20041;-76
2023/06/04 05:16:07;;;;;;;12.35;5.20;;;;;;;;;;5012137;28;20080;-76
2023/06/04 05:18:34;;;;;;;7.38;5.30;;;;;;;;;;5007411;28;20046;-76
2023/06/04 05:21:02;;;;;;;9.27;5.90;;;;;;;;;;5010511;28;20542;-75
2023/06/04 05:23:29;;;;;;;10.05;6.07;;;;;;;;;;5009472;28;20485;-76
2023/06/04 05:25:56;;;;;;;11.98;6.07;;;;;;;;;;5005529;28;20475;-75
2023/06/04 05:28:25;;;;;;;10.77;6.28;;;;;;;;;;5009592;28;20084;-76
2023/06/04 05:30:59;;;;;;;8.45;5.65;;;;;;;;;;5007070;28;20073;-75
2023/06/04 05:33:28;;;;;;;11.52;5.70;;;;;;;;;;5000179;28;20049;-76
2023/06/04 05:35:57;;;;;;;11.30;5.93;;;;;;;;;;5026338;28;20080;-76
2023/06/04 05:38:25;;;;;;;9.90;6.15;;;;;;;;;;5013509;28;20124;-76
2023/06/04 05:40:52;;;;;;;11.60;5.75;;;;;;;;;;5007632;28;20050;-75
2023/06/04 05:43:18;;;;;;;9.25;5.90;;;;;;;;;;5012089;28;20066;-76
2023/06/04 05:45:45;;;;;;;10.52;5.75;;;;;;;;;;5006416;28;20145;-75
2023/06/04 05:48:11;;;;;;;10.23;5.68;;;;;;;;;;5006925;28;20111;-76
2023/06/04 05:50:37;;;;;;;12.15;5.85;;;;;;;;;;5007171;28;20045;-75
2023/06/04 05:53:03;;;;;;;11.43;5.65;;;;;;;;;;5012721;28;20073;-75
2023/06/04 05:55:29;;;;;;;8.35;5.45;;;;;;;;;;5007964;28;20042;-76
2023/06/04 05:57:55;;;;;;;10.00;5.25;;;;;;;;;;5007869;28;20060;-75
2023/06/04 06:00:22;;;;;;;12.57;5.78;;;;;;;;;;5006835;28;20403;-76
2023/06/04 06:02:49;;;;;;;8.80;5.38;;;;;;;;;;5009417;28;20069;-75
2023/06/04 06:05:15;;;;;;;9.75;5.75;;;;;;;;;;5001524;28;20449;-75
2023/06/04 06:07:41;;;;;;;10.13;6.28;;;;;;;;;;5009511;28;20132;-75
2023/06/04 06:10:08;;;;;;;10.05;5.63;;;;;;;;;;5005641;28;20058;-75
2023/06/04 06:12:34;;;;;;;11.77;5.15;;;;;;;;;;5017220;28;20085;-76
2023/06/04 06:15:00;;;;;;;12.82;5.25;;;;;;;;;;5011994;28;20050;-76
2023/06/04 06:17:26;;;;;;;9.23;4.90;;;;;;;;;;5008088;28;20458;-75
2023/06/04 06:19:52;;;;;;;8.68;4.50;;;;;;;;;;5008552;28;20042;-75
2023/06/04 06:22:19;;;;;;;11.57;4.88;;;;;;;;;;5017699;28;20447;-75
2023/06/04 06:24:45;;;;;;;8.40;4.28;;;;;;;;;;5006397;28;20120;-75
2023/06/04 06:27:12;;;;;;;9.55;4.30;;;;;;;;;;5010695;28;20509;-76
2023/06/04 06:29:39;;;;;;;10.75;4.43;;;;;;;;;;5011340;28;20068;-75
2023/06/04 06:32:05;;;;;;;9.18;3.90;;;;;;;;;;4999206;28;20045;-75
2023/06/04 06:34:31;;;;;;;7.57;4.30;;;;;;;;;;5006271;28;20081;-76
2023/06/04 06:36:57;;;;;;;9.50;3.80;;;;;;;;;;5004015;28;20197;-75
2023/06/04 06:39:23;;;;;;;8.65;4.00;;;;;;;;;;5006867;28;20052;-75
2023/06/04 06:41:49;;;;;;;7.47;4.43;;;;;;;;;;5008710;28;20099;-77
2023/06/04 06:44:15;;;;;;;8.07;4.18;;;;;;;;;;5007842;28;20141;-76
2023/06/04 06:46:41;;;;;;;9.52;4.00;;;;;;;;;;5006994;28;20265;-75
2023/06/04 06:49:08;;;;;;;7.15;4.00;;;;;;;;;;5005605;28;20544;-76
2023/06/04 06:51:34;;;;;;;7.68;3.30;;;;;;;;;;5009351;28;20096;-75
2023/06/04 06:54:00;;;;;;;8.98;3.80;;;;;;;;;;5022131;28;20049;-75
2023/06/04 06:56:26;;;;;;;8.00;3.92;;;;;;;;;;5009540;28;20537;-76
2023/06/04 06:58:52;;;;;;;8.57;3.70;;;;;;;;;;5002750;28;20430;-78
2023/06/04 07:01:18;;;;;;;9.13;3.92;;;;;;;;;;5009657;28;20054;-78
2023/06/04 07:03:44;;;;;;;9.35;3.95;;;;;;;;;;5011583;28;20133;-78
2023/06/04 07:06:10;;;;;;;6.88;3.50;;;;;;;;;;5006047;28;20758;-75
2023/06/04 07:08:36;;;;;;;6.63;3.63;;;;;;;;;;5008006;28;20156;-80
2023/06/04 07:11:03;;;;;;;6.90;3.20;;;;;;;;;;5010244;28;20045;-77
2023/06/04 07:13:31;;;;;;;9.30;3.38;;;;;;;;;;5007469;28;20041;-79
2023/06/04 07:15:58;;;;;;;6.97;3.38;;;;;;;;;;5016550;28;20046;-80
2023/06/04 07:18:24;;;;;;;6.50;3.53;;;;;;;;;;5010666;28;20120;-76
2023/06/04 07:20:52;;;;;;;10.40;4.40;;;;;;;;;;5007721;28;20061;-76
2023/06/04 07:23:18;;;;;;;8.00;3.90;;;;;;;;;;5009696;28;20077;-72
2023/06/04 07:25:44;;;;;;;6.70;3.67;;;;;;;;;;5025781;28;20072;-75
2023/06/04 07:28:10;;;;;;;6.75;3.70;;;;;;;;;;5006068;28;20053;-82
2023/06/04 07:30:38;;;;;;;11.10;3.30;;;;;;;;;;5009372;28;20086;-77
2023/06/04 07:33:04;;;;;;;9.63;3.65;;;;;;;;;;4998514;28;20042;-76
2023/06/04 07:35:30;;;;;;;6.88;3.58;;;;;;;;;;5003609;28;20483;-76
2023/06/04 07:37:56;;;;;;;10.30;3.90;;;;;;;;;;5005174;28;20411;-76
2023/06/04 07:40:22;;;;;;;6.10;2.90;;;;;;;;;;5001870;28;20068;-73
2023/06/04 07:42:48;;;;;;;7.35;3.38;;;;;;;;;;5005565;28;20081;-74
2023/06/04 07:45:15;;;;;;;7.82;3.10;;;;;;;;;;4999926;28;20046;-73
2023/06/04 07:47:41;;;;;;;6.50;3.30;;;;;;;;;;5005894;28;20053;-74
2023/06/04 07:50:07;;;;;;;3.55;2.85;;;;;;;;;;5012947;28;20050;-75
2023/06/04 07:52:34;;;;;;;4.40;2.78;;;;;;;;;;4999023;28;20058;-74
2023/06/04 07:55:01;;;;;;;8.80;3.30;;;;;;;;;;5006893;28;20042;-73
2023/06/04 07:57:27;;;;;;;6.30;3.10;;;;;;;;;;5007119;28;20053;-74
2023/06/04 07:59:53;;;;;;;5.72;3.10;;;;;;;;;;5006028;28;20046;-74
2023/06/04 08:02:19;;;;;;;8.10;3.38;;;;;;;;;;5005287;28;20033;-73
2023/06/04 08:04:46;;;;;;;4.75;3.08;;;;;;;;;;5003321;28;20084;-74
2023/06/04 08:07:12;;;;;;;8.90;3.40;;;;;;;;;;4997611;28;20054;-72
2023/06/04 08:09:38;;;;;;;7.15;3.20;;;;;;;;;;5002397;28;20486;-75
2023/06/04 08:12:05;;;;;;;8.63;3.60;;;;;;;;;;4998131;28;20512;-74
2023/06/04 08:14:32;;;;;;;7.53;3.58;;;;;;;;;;4996441;28;20050;-76
2023/06/04 08:16:58;;;;;;;6.25;3.10;;;;;;;;;;5001778;28;20046;-75
2023/06/04 08:19:24;;;;;;;6.93;3.47;;;;;;;;;;5001816;28;20042;-75
2023/06/04 08:21:50;;;;;;;6.47;2.90;;;;;;;;;;5001532;28;20058;-73
2023/06/04 08:24:16;;;;;;;7.57;3.13;;;;;;;;;;5001626;28;20565;-73
2023/06/04 08:26:42;;;;;;;6.90;3.00;;;;;;;;;;5003124;28;20045;-73
2023/06/04 08:29:09;;;;;;;5.00;2.92;;;;;;;;;;5002866;28;20054;-73
2023/06/04 08:31:35;;;;;;;6.55;3.33;;;;;;;;;;5001470;28;20085;-74
2023/06/04 08:34:01;;;;;;;5.85;3.17;;;;;;;;;;5003926;28;20086;-74
2023/06/04 08:36:27;;;;;;;6.53;3.10;;;;;;;;;;4998820;28;20100;-73
2023/06/04 08:38:54;;;;;;;6.20;3.20;;;;;;;;;;5000155;28;20041;-74
2023/06/04 08:41:28;;;;;;;5.57;3.05;;;;;;;;;;5001180;28;20057;-74
2023/06/04 08:43:58;;;;;;;4.75;3.00;;;;;;;;;;5002085;28;20068;-73
2023/06/04 08:46:24;;;;;;;6.72;3.15;;;;;;;;;;5004596;28;20061;-75
2023/06/04 08:48:50;;;;;;;4.45;3.03;;;;;;;;;;5009359;28;20553;-74
2023/06/04 08:51:17;;;;;;;6.38;2.83;;;;;;;;;;5003425;28;20089;-74
2023/06/04 08:53:47;;;;;;;8.85;3.25;;;;;;;;;;5008178;28;20157;-74
2023/06/04 08:56:13;;;;;;;3.75;2.78;;;;;;;;;;5003615;28;20049;-75
2023/06/04 08:58:40;;;;;;;5.43;2.60;;;;;;;;;;5010003;28;20112;-75
2023/06/04 09:01:07;;;;;;;8.73;3.00;;;;;;;;;;5007188;28;20041;-74
2023/06/04 09:03:35;;;;;;;3.78;2.63;;;;;;;;;;5010333;28;20108;-73
2023/06/04 09:06:02;;;;;;;6.10;3.40;;;;;;;;;;5009170;28;20046;-73
2023/06/04 09:08:31;;;;;;;4.93;2.60;;;;;;;;;;5003248;28;20050;-75
2023/06/04 09:10:58;;;;;;;3.80;2.53;;;;;;;;;;5003298;28;20046;-73
2023/06/04 09:13:28;;;;;;;4.97;2.42;;;;;;;;;;5004757;28;20046;-73
2023/06/04 09:16:08;;;;;;;4.53;3.05;;;;;;;;;;5011452;28;20054;-74
2023/06/04 09:18:34;;;;;;;4.55;2.63;;;;;;;;;;5006931;28;20512;-74
2023/06/04 09:21:07;;;;;;;5.10;2.70;;;;;;;;;;5005254;28;20446;-74
2023/06/04 09:23:33;;;;;;;;;;;;;;;;;;5008706;28;20050;-74
2023/06/04 09:26:09;;;;;;;4.00;2.30;;;;;;;;;;5007754;28;19928;-74
2023/06/04 09:28:36;;;;;;;7.25;2.63;;;;;;;;;;5008013;28;20130;-74
2023/06/04 09:31:02;;;;;;;5.18;3.05;;;;;;;;;;5006751;28;20389;-74
2023/06/04 09:33:29;;;;;;;5.05;2.78;;;;;;;;;;5008423;28;20093;-74
2023/06/04 09:35:56;;;;;;;5.43;2.60;;;;;;;;;;5007542;28;20104;-74
2023/06/04 09:38:22;;;;;;;4.88;2.90;;;;;;;;;;5002749;28;20501;-75
2023/06/04 09:40:49;;;;;;;4.82;2.47;;;;;;;;;;5008482;28;20061;-74
2023/06/04 09:43:24;;;;;;;5.70;2.80;;;;;;;;;;5007825;28;20113;-75
2023/06/04 09:45:51;;;;;;;6.28;2.78;;;;;;;;;;5005663;28;20095;-74
2023/06/04 09:48:21;;;;;;;4.85;2.47;;;;;;;;;;5005912;28;20127;-75
2023/06/04 09:50:47;;;;;;;6.60;3.30;;;;;;;;;;5004283;28;20120;-74
2023/06/04 09:53:22;;;;;;;5.28;3.08;;;;;;;;;;5007956;28;20046;-74
2023/06/04 09:55:58;;;;;;;3.58;2.60;;;;;;;;;;5002219;28;20068;-74
2023/06/04 09:58:26;;;;;;;5.75;2.80;;;;;;;;;;5007111;28;20181;-73
2023/06/04 10:00:54;;;;;;;4.68;2.47;;;;;;;;;;5005462;28;20054;-73
2023/06/04 10:03:23;;;;;;;5.75;3.05;;;;;;;;;;5006608;28;20173;-73
2023/06/04 10:05:50;;;;;;;5.05;2.47;;;;;;;;;;5003985;28;20057;-73
2023/06/04 10:08:18;;;;;;;6.43;2.65;;;;;;;;;;5006868;28;20092;-74
2023/06/04 10:10:46;;;;;;;6.85;2.80;;;;;;;;;;5006917;28;20572;-73
2023/06/04 10:13:19;;;;;;;3.58;2.72;;;17.60;99.90;;;;;;5009350;28;20042;-72
2023/06/04 10:15:49;;;;;;;3.95;2.38;;;17.20;99.90;;;;;;4997940;28;20054;-73
2023/06/04 10:18:16;;;;;;;4.70;2.90;;;17.20;99.90;;;;;;5005665;28;20477;-73
2023/06/04 10:20:42;;;;;;;4.70;2.63;;;17.20;99.90;;;;;;5002616;28;20501;-73
2023/06/04 10:23:08;;;;;;;6.28;2.63;;;17.40;99.90;;;;;;5005120;28;20136;-73
2023/06/04 10:25:37;;;;;;;3.75;2.85;;;17.30;99.90;;;;;;5002155;28;20166;-72
2023/06/04 10:28:03;;;;;;;4.60;2.60;;;17.40;99.90;;;;;;5003611;28;20125;-73
2023/06/04 10:30:30;;;;;;;4.47;2.80;;;17.50;99.90;;;;;;5003601;28;20619;-72
2023/06/04 10:32:57;;;;;;;7.47;2.80;;;17.40;99.90;;;;;;5011479;28;20034;-73
2023/06/04 10:35:36;;;;;;;3.88;2.65;;;17.40;99.90;;;;;;5006816;28;20095;-73
2023/06/04 10:38:09;;;;;;;4.07;2.50;;;17.40;99.90;;;;;;4999017;28;20046;-76
2023/06/04 10:40:36;;;;;;;5.57;2.72;;;17.50;99.90;;;;;;5016902;28;20144;-74
2023/06/04 10:43:06;;;;;;;3.45;2.50;;;17.50;99.90;;;;;;4997568;28;20099;-75
2023/06/04 10:45:32;;;;;;;5.07;2.78;;;17.60;99.90;;;;;;5001491;28;20482;-74
2023/06/04 10:48:08;;;;;;;5.05;2.53;;;17.60;99.90;;;;;;4995918;28;20056;-74
2023/06/04 10:50:36;;;;;;;3.25;2.60;;;17.70;99.90;;;;;;5006129;28;20050;-74
2023/06/04 10:53:03;;;;;;;5.40;2.60;;;17.80;99.90;;;;;;5005911;28;20057;-73
2023/06/04 10:55:30;;;;;;;7.32;2.88;;;17.90;99.90;;;;;;5006585;28;20175;-72
2023/06/04 10:58:00;;;;;;;4.10;2.65;;;18.00;99.90;;;;;;5006492;28;20076;-73
2023/06/04 11:00:41;;;;;;;3.55;2.88;;;17.90;99.90;;;;;;5005576;28;20081;-73
2023/06/04 11:03:07;;;;;;;4.82;2.83;;;17.90;99.90;;;;;;5003372;28;20046;-73
2023/06/04 11:05:53;;;;;;;5.90;2.92;;;17.90;99.90;;;;;;5008801;28;20050;-73
2023/06/04 11:08:31;;;;;;;5.22;2.80;;;17.90;99.90;;;;;;4999967;28;20054;-72
2023/06/04 11:10:57;;;;;;;3.10;2.80;;;17.90;99.90;;;;;;5000754;28;20438;-72
2023/06/04 11:13:25;;;;;;;3.67;2.60;;;17.80;99.90;;;;;;5000420;28;20129;-72
2023/06/04 11:15:50;;;;;;;2.95;2.63;;;17.90;99.90;;;;;;5004449;28;20038;-72
2023/06/04 11:18:18;;;;;;;5.30;2.50;;;17.80;99.90;;;;;;5010017;28;20390;-72
2023/06/04 11:20:45;;;;;;;3.67;3.00;;;17.80;99.90;;;;;;5000653;28;20425;-71
2023/06/04 11:23:13;;;;;;;3.78;2.50;;;17.90;99.90;;;;;;4994775;28;20617;-72
2023/06/04 11:25:39;;;;;;;5.03;2.75;;;18.10;99.90;;;;;;4999431;28;20402;-73
2023/06/04 11:28:05;;;;;;;4.85;2.50;;;18.20;99.90;;;;;;5005606;28;20046;-72
2023/06/04 11:30:30;;;;;;;3.40;2.78;;;18.20;99.90;;;;;;5003933;28;20816;-72
2023/06/04 11:33:04;;;;;;;5.07;2.70;;;18.20;99.90;;;;;;5010710;28;20483;-72
2023/06/04 11:35:31;;;;;;;4.72;2.67;;;18.20;99.90;;;;;;5006607;28;20116;-72
2023/06/04 11:37:58;;;;;;;4.72;2.83;;;18.20;99.90;;;;;;5000314;28;20079;-72
2023/06/04 11:40:26;;;;;;;5.10;2.50;;;18.20;99.90;;;;;;5010228;28;20085;-72
2023/06/04 11:42:52;;;;;;;6.95;3.00;;;18.20;99.90;;;;;;5010728;28;20081;-72
2023/06/04 11:45:20;;;;;;;2.75;2.30;;;18.00;99.90;;;;;;5010642;28;20050;-73
2023/06/04 11:47:51;;;;;;;7.80;2.92;;;18.30;99.90;;;;;;5008610;28;20120;-73
2023/06/04 11:50:16;;;;;;;4.60;2.88;;;18.20;99.90;;;;;;4993998;28;20046;-73
2023/06/04 11:52:43;;;;;;;5.95;2.88;;;18.30;99.90;;;;;;5003836;28;20474;-72
2023/06/04 11:55:13;;;;;;;3.90;2.58;;;18.30;99.90;;;;;;5010952;28;20520;-72
2023/06/04 11:57:39;;;;;;;2.90;2.60;;;18.30;99.90;;;;;;5008987;28;20536;-73
2023/06/04 12:00:10;;;;;;;4.90;2.95;;;18.30;99.90;;;;;;5003215;28;20046;-73
2023/06/04 12:02:37;;;;;;;3.65;2.25;;;18.40;99.90;;;;;;5001013;28;20508;-73
2023/06/04 12:05:18;;;;;;;7.63;2.95;;;18.40;99.90;;;;;;5007513;28;20438;-73
2023/06/04 12:07:44;;;;;;;5.63;2.75;;;18.60;99.90;;;;;;5003104;28;20055;-72
2023/06/04 12:10:13;;;;;;;4.10;2.65;;;18.70;99.90;;;;;;5009263;28;20455;-72
2023/06/04 12:12:40;;;;;;;5.10;2.65;;;18.60;99.90;;;;;;5005007;28;20432;-73
2023/06/04 12:15:07;;;;;;;3.83;2.45;;;18.70;99.90;;;;;;5007614;28;20046;-73
2023/06/04 12:17:33;;;;;;;4.45;2.67;;;;;;;;;;5010742;28;20038;-73
2023/06/04 12:19:59;;;;;;;2.97;2.50;;;;;;;;;;5010073;28;20440;-73
2023/06/04 12:22:29;;;;;;;3.20;2.55;;;19.00;99.90;;;;;;5005950;28;20045;-73
2023/06/04 12:24:57;;;;;;;4.90;2.85;;;18.90;99.90;;;;;;5008322;28;20389;-73
2023/06/04 12:27:25;;;;;;;4.80;2.67;;;;;;;;;;4994651;28;20050;-73
2023/06/04 12:30:02;;;;;;;3.58;2.70;;;19.00;99.90;;;;;;4997737;28;20487;-73
2023/06/04 12:32:28;;;;;;;5.25;2.72;;;;;;;;;;5000067;28;20042;-73
2023/06/04 12:34:55;;;;;;;4.82;2.60;;;19.30;99.90;;;;;;4992928;28;20058;-72
2023/06/04 12:37:25;;;;;;;3.15;2.28;;;19.30;99.90;;;;;;5005344;28;20071;-73
2023/06/04 12:39:51;;;;;;;5.75;2.92;;;19.20;99.90;;;;;;5005863;28;20506;-72
2023/06/04 12:42:18;;;;;;;7.43;2.90;;;19.20;99.90;;;;;;5010854;28;20052;-72
2023/06/04 12:44:44;;;;;;;4.45;2.50;;;19.20;99.90;;;;;;5005183;28;20052;-73
2023/06/04 12:47:11;;;;;;;5.80;3.00;;;19.30;99.90;;;;;;5000391;28;20047;-73
2023/06/04 12:49:37;;;;;;;5.70;3.05;;;19.40;99.90;;;;;;4994820;28;20122;-72
2023/06/04 12:52:03;;;;;;;2.60;2.33;;;19.50;99.90;;;;;;5008705;28;20134;-72
2023/06/04 12:54:29;;;;;;;4.38;2.47;;;19.50;99.90;;;;;;5003880;28;20057;-72
2023/06/04 12:56:58;;;;;;;4.63;2.50;;;19.50;99.90;;;;;;5007011;28;20042;-73
2023/06/04 12:59:25;;;;;;;3.38;2.60;;;19.50;99.90;;;;;;5010173;28;20050;-72
2023/06/04 13:01:51;;;;;;;3.13;2.20;;;19.50;99.90;;;;;;5009997;28;20145;-72
2023/06/04 13:04:17;;;;;;;2.97;2.60;;;19.50;99.90;;;;;;5001231;28;20048;-73
2023/06/04 13:06:42;;;;;;;3.40;2.63;;;19.50;99.90;;;;;;5005520;28;20037;-73
2023/06/04 13:09:11;;;;;;;4.63;2.80;;;19.60;99.90;;;;;;5007537;28;20139;-73
2023/06/04 13:11:42;;;;;;;3.30;2.60;;;19.80;99.90;;;;;;5000936;28;20046;-73
2023/06/04 13:14:08;;;;;;;4.57;2.95;;;19.90;99.90;;;;;;4998529;28;20057;-72
2023/06/04 13:16:34;;;;;;;3.70;2.30;;;20.00;99.90;;;;;;5010784;28;20137;-72
2023/06/04 13:19:00;;;;;;;3.92;2.67;;;;;;;;;;5007336;28;20125;-72
2023/06/04 13:21:26;;;;;;;4.57;2.65;;;20.30;99.90;;;;;;4996800;28;20078;-72
2023/06/04 13:23:51;;;;;;;3.95;2.70;;;20.30;99.90;;;;;;5009102;28;20426;-72
2023/06/04 13:26:18;;;;;;;4.50;2.83;;;20.30;99.90;;;;;;5000688;28;20096;-71
2023/06/04 13:28:44;;;;;;;5.63;2.55;;;20.20;99.90;;;;;;5001498;28;20038;-72
2023/06/04 13:31:09;;;;;;;5.22;3.00;;;20.10;99.90;;;;;;5007117;28;20544;-72
2023/06/04 13:33:35;;;;;;;4.22;2.60;;;20.10;99.90;;;;;;5007221;28;20133;-74
2023/06/04 13:36:04;;;;;;;3.33;2.58;;;20.00;99.90;;;;;;5004057;28;20046;-72
2023/06/04 13:38:31;;;;;;;4.15;2.58;;;20.10;99.90;;;;;;5005725;28;20089;-74
2023/06/04 13:40:57;;;;;;;4.63;2.75;;;20.10;99.90;;;;;;5004761;28;20111;-71
2023/06/04 13:43:23;;;;;;;4.97;3.03;;;20.30;99.90;;;;;;5002254;28;20046;-72
2023/06/04 13:45:48;;;;;;;3.65;3.05;;;20.40;99.90;;;;;;5007191;28;20038;-74
2023/06/04 13:48:15;;;;;;;4.40;2.80;;;;;;;;;;5019724;28;20046;-72
2023/06/04 13:50:41;;;;;;;3.97;2.85;;;20.40;99.90;;;;;;4999960;28;20053;-72
2023/06/04 13:53:08;;;;;;;6.47;2.75;;;;;;;;;;5006239;28;20074;-73
2023/06/04 13:55:33;;;;;;;4.75;3.05;;;20.80;99.90;;;;;;5012991;28;20132;-72
2023/06/04 13:57:59;;;;;;;4.40;2.70;;;;;;;;;;5007138;28;20121;-71
2023/06/04 14:00:25;;;;;;;3.15;2.80;;;;;;;;;;5011886;28;20308;-72
2023/06/04 14:02:52;;;;;;;5.07;2.80;;;;;;;;;;5013612;28;20121;-70
2023/06/04 14:05:18;;;;;;;4.93;2.97;;;;;;;;;;5016801;28;20129;-73
2023/06/04 14:07:44;;;;;;;4.30;2.60;;;;;;;;;;5009343;28;20073;-71
2023/06/04 14:10:11;;;;;;;8.50;2.88;;;;;;;;;;5009087;28;20046;-71
2023/06/04 14:12:39;;;;;;;4.53;3.40;;;;;;;;;;5009292;28;20081;-69